Alberta, Minnesota
Current Conditions -  °F | °C
As of 6:33 PM on Friday 21 Nov 2014 (Local Time) from KMOX Reporting Station
Clear Clear  
Wind Chill: 17°   Ceiling: Unl
Heat Index: 28°   Visibility: 10mi
Dew Point: 25°   Wind: 14mph
Humidity: 86%   Direction: 160°SSE
Pressure: 29.8"   Gusts: NA
Location:  45.57°N, 96.05°W
Report Text: KMOX 220033Z AUTO 16012KT 10SM CLR M02/M04 A2980 RMK AO2
Loading
Personal Weather Stations






























Interactive Weather Map New forecast layout! Learn more

10-Day Weather Forecast

Advertisements
Track Severe Weather on mobile